sensor_id;sensor_type;location;lat;lon;timestamp;temperature;humidity
11387;DHT22;5748;53.102;8.456;2022-08-01T00:00:21;23.20;67.80
11387;DHT22;5748;53.102;8.456;2022-08-01T00:02:48;23.20;68.80
11387;DHT22;5748;53.102;8.456;2022-08-01T00:05:17;23.20;67.10
11387;DHT22;5748;53.102;8.456;2022-08-01T00:07:44;23.20;67.90
11387;DHT22;5748;53.102;8.456;2022-08-01T00:10:13;23.10;67.10
11387;DHT22;5748;53.102;8.456;2022-08-01T00:12:42;23.10;67.20
11387;DHT22;5748;53.102;8.456;2022-08-01T00:15:13;23.10;67.20
11387;DHT22;5748;53.102;8.456;2022-08-01T00:18:12;23.10;67.20
11387;DHT22;5748;53.102;8.456;2022-08-01T00:20:41;23.00;68.20
11387;DHT22;5748;53.102;8.456;2022-08-01T00:23:08;23.10;67.20
11387;DHT22;5748;53.102;8.456;2022-08-01T00:25:35;23.10;67.00
11387;DHT22;5748;53.102;8.456;2022-08-01T00:28:03;23.00;66.90
11387;DHT22;5748;53.102;8.456;2022-08-01T00:30:34;23.00;67.00
11387;DHT22;5748;53.102;8.456;2022-08-01T00:33:01;23.00;67.00
11387;DHT22;5748;53.102;8.456;2022-08-01T00:35:28;23.00;67.10
11387;DHT22;5748;53.102;8.456;2022-08-01T00:37:56;23.00;67.00
11387;DHT22;5748;53.102;8.456;2022-08-01T00:40:23;23.00;67.20
11387;DHT22;5748;53.102;8.456;2022-08-01T00:42:50;23.00;67.10
11387;DHT22;5748;53.102;8.456;2022-08-01T00:45:17;23.00;67.10
11387;DHT22;5748;53.102;8.456;2022-08-01T00:47:45;23.00;67.20
11387;DHT22;5748;53.102;8.456;2022-08-01T00:50:12;23.00;67.20
11387;DHT22;5748;53.102;8.456;2022-08-01T00:52:40;23.00;67.30
11387;DHT22;5748;53.102;8.456;2022-08-01T00:55:10;23.00;67.40
11387;DHT22;5748;53.102;8.456;2022-08-01T00:57:39;23.00;67.60
11387;DHT22;5748;53.102;8.456;2022-08-01T01:00:07;22.90;67.30
11387;DHT22;5748;53.102;8.456;2022-08-01T01:02:35;22.90;67.40
11387;DHT22;5748;53.102;8.456;2022-08-01T01:05:02;22.90;67.30
11387;DHT22;5748;53.102;8.456;2022-08-01T01:07:50;22.90;67.50
11387;DHT22;5748;53.102;8.456;2022-08-01T01:10:28;22.80;68.60
11387;DHT22;5748;53.102;8.456;2022-08-01T01:13:03;22.90;68.00
11387;DHT22;5748;53.102;8.456;2022-08-01T01:15:37;22.90;67.80
11387;DHT22;5748;53.102;8.456;2022-08-01T01:18:10;22.80;67.80
11387;DHT22;5748;53.102;8.456;2022-08-01T01:20:40;22.80;67.80
11387;DHT22;5748;53.102;8.456;2022-08-01T01:23:34;22.80;67.80
11387;DHT22;5748;53.102;8.456;2022-08-01T01:26:21;22.80;68.80
11387;DHT22;5748;53.102;8.456;2022-08-01T01:29:02;22.80;68.40
11387;DHT22;5748;53.102;8.456;2022-08-01T01:31:33;22.80;68.30
11387;DHT22;5748;53.102;8.456;2022-08-01T01:34:07;22.80;67.90
11387;DHT22;5748;53.102;8.456;2022-08-01T01:36:35;22.80;68.00
11387;DHT22;5748;53.102;8.456;2022-08-01T01:39:04;22.80;67.90
11387;DHT22;5748;53.102;8.456;2022-08-01T01:41:32;22.80;68.00
11387;DHT22;5748;53.102;8.456;2022-08-01T01:44:04;22.80;68.10
11387;DHT22;5748;53.102;8.456;2022-08-01T01:46:32;22.80;68.30
11387;DHT22;5748;53.102;8.456;2022-08-01T01:49:00;22.80;68.20
11387;DHT22;5748;53.102;8.456;2022-08-01T01:51:30;22.80;68.30
11387;DHT22;5748;53.102;8.456;2022-08-01T01:53:58;22.80;68.40
11387;DHT22;5748;53.102;8.456;2022-08-01T01:56:27;22.70;68.20
11387;DHT22;5748;53.102;8.456;2022-08-01T01:59:00;22.70;68.30
11387;DHT22;5748;53.102;8.456;2022-08-01T02:01:32;22.80;68.90
11387;DHT22;5748;53.102;8.456;2022-08-01T02:04:01;22.80;68.80
11387;DHT22;5748;53.102;8.456;2022-08-01T02:06:30;22.70;68.30
11387;DHT22;5748;53.102;8.456;2022-08-01T02:09:00;22.70;68.50
11387;DHT22;5748;53.102;8.456;2022-08-01T02:11:27;22.70;68.60
11387;DHT22;5748;53.102;8.456;2022-08-01T02:13:58;22.70;68.50
11387;DHT22;5748;53.102;8.456;2022-08-01T02:16:34;22.70;68.80
11387;DHT22;5748;53.102;8.456;2022-08-01T02:19:02;22.70;69.00
11387;DHT22;5748;53.102;8.456;2022-08-01T02:21:32;22.70;68.50
11387;DHT22;5748;53.102;8.456;2022-08-01T02:24:12;22.70;68.70
11387;DHT22;5748;53.102;8.456;2022-08-01T02:26:44;22.70;69.80
11387;DHT22;5748;53.102;8.456;2022-08-01T02:32:11;22.70;69.60
11387;DHT22;5748;53.102;8.456;2022-08-01T02:34:41;22.70;68.70
11387;DHT22;5748;53.102;8.456;2022-08-01T02:37:10;22.70;68.60
11387;DHT22;5748;53.102;8.456;2022-08-01T02:39:37;22.70;68.60
11387;DHT22;5748;53.102;8.456;2022-08-01T02:42:07;22.70;68.70
11387;DHT22;5748;53.102;8.456;2022-08-01T02:44:37;22.70;68.70
11387;DHT22;5748;53.102;8.456;2022-08-01T02:47:06;22.70;68.60
11387;DHT22;5748;53.102;8.456;2022-08-01T02:49:40;22.60;68.40
11387;DHT22;5748;53.102;8.456;2022-08-01T02:52:13;22.60;68.80
11387;DHT22;5748;53.102;8.456;2022-08-01T02:54:44;22.60;68.80
11387;DHT22;5748;53.102;8.456;2022-08-01T02:57:13;22.60;68.60
11387;DHT22;5748;53.102;8.456;2022-08-01T02:59:43;22.60;68.60
11387;DHT22;5748;53.102;8.456;2022-08-01T03:02:11;22.60;68.60
11387;DHT22;5748;53.102;8.456;2022-08-01T03:05:01;22.50;68.50
11387;DHT22;5748;53.102;8.456;2022-08-01T03:07:30;22.50;69.50
11387;DHT22;5748;53.102;8.456;2022-08-01T03:09:57;22.50;68.60
11387;DHT22;5748;53.102;8.456;2022-08-01T03:12:27;22.50;68.60
11387;DHT22;5748;53.102;8.456;2022-08-01T03:14:57;22.40;68.80
11387;DHT22;5748;53.102;8.456;2022-08-01T03:17:28;22.40;68.70
11387;DHT22;5748;53.102;8.456;2022-08-01T03:19:57;22.40;68.80
11387;DHT22;5748;53.102;8.456;2022-08-01T03:22:27;22.40;68.80
11387;DHT22;5748;53.102;8.456;2022-08-01T03:24:56;22.30;68.70
11387;DHT22;5748;53.102;8.456;2022-08-01T03:27:25;22.40;68.70
11387;DHT22;5748;53.102;8.456;2022-08-01T03:29:55;22.40;68.70
11387;DHT22;5748;53.102;8.456;2022-08-01T03:32:29;22.40;68.80
11387;DHT22;5748;53.102;8.456;2022-08-01T03:34:57;22.40;69.00
11387;DHT22;5748;53.102;8.456;2022-08-01T03:37:27;22.30;68.50
11387;DHT22;5748;53.102;8.456;2022-08-01T03:40:00;22.30;68.70
11387;DHT22;5748;53.102;8.456;2022-08-01T03:42:32;22.30;68.70
11387;DHT22;5748;53.102;8.456;2022-08-01T03:45:04;22.30;68.80
11387;DHT22;5748;53.102;8.456;2022-08-01T03:47:43;22.30;68.80
11387;DHT22;5748;53.102;8.456;2022-08-01T03:50:12;22.20;69.00
11387;DHT22;5748;53.102;8.456;2022-08-01T03:52:44;22.20;68.60
11387;DHT22;5748;53.102;8.456;2022-08-01T03:55:13;22.20;68.80
11387;DHT22;5748;53.102;8.456;2022-08-01T03:57:42;22.20;68.80
11387;DHT22;5748;53.102;8.456;2022-08-01T04:00:10;22.20;68.90
11387;DHT22;5748;53.102;8.456;2022-08-01T04:02:58;22.20;69.00
11387;DHT22;5748;53.102;8.456;2022-08-01T04:05:33;22.10;69.50
11387;DHT22;5748;53.102;8.456;2022-08-01T04:08:19;22.10;69.30
11387;DHT22;5748;53.102;8.456;2022-08-01T04:10:46;22.10;69.50
11387;DHT22;5748;53.102;8.456;2022-08-01T04:13:13;22.10;68.60
11387;DHT22;5748;53.102;8.456;2022-08-01T04:15:42;22.00;68.70
11387;DHT22;5748;53.102;8.456;2022-08-01T04:18:09;22.00;69.00
11387;DHT22;5748;53.102;8.456;2022-08-01T04:21:01;22.00;68.80
11387;DHT22;5748;53.102;8.456;2022-08-01T04:23:30;21.90;69.80
11387;DHT22;5748;53.102;8.456;2022-08-01T04:25:59;21.90;69.10
11387;DHT22;5748;53.102;8.456;2022-08-01T04:28:30;21.90;69.10
11387;DHT22;5748;53.102;8.456;2022-08-01T04:31:05;21.90;69.00
11387;DHT22;5748;53.102;8.456;2022-08-01T04:33:35;21.90;69.50
11387;DHT22;5748;53.102;8.456;2022-08-01T04:36:03;21.90;69.30
11387;DHT22;5748;53.102;8.456;2022-08-01T04:38:35;21.90;69.50
11387;DHT22;5748;53.102;8.456;2022-08-01T04:41:03;21.80;69.30
11387;DHT22;5748;53.102;8.456;2022-08-01T04:43:32;21.80;69.30
11387;DHT22;5748;53.102;8.456;2022-08-01T04:46:12;21.80;70.00
11387;DHT22;5748;53.102;8.456;2022-08-01T04:48:40;21.90;69.90
11387;DHT22;5748;53.102;8.456;2022-08-01T04:51:12;21.80;69.30
11387;DHT22;5748;53.102;8.456;2022-08-01T04:53:42;21.80;69.60
11387;DHT22;5748;53.102;8.456;2022-08-01T04:56:09;21.80;69.40
11387;DHT22;5748;53.102;8.456;2022-08-01T04:58:38;21.80;69.30
11387;DHT22;5748;53.102;8.456;2022-08-01T05:01:06;21.80;69.30
11387;DHT22;5748;53.102;8.456;2022-08-01T05:03:33;21.80;69.40
11387;DHT22;5748;53.102;8.456;2022-08-01T05:06:00;21.80;69.30
11387;DHT22;5748;53.102;8.456;2022-08-01T05:08:27;21.80;69.30
11387;DHT22;5748;53.102;8.456;2022-08-01T05:10:56;21.80;69.40
11387;DHT22;5748;53.102;8.456;2022-08-01T05:13:24;21.80;69.50
11387;DHT22;5748;53.102;8.456;2022-08-01T05:15:51;21.80;69.30
11387;DHT22;5748;53.102;8.456;2022-08-01T05:18:19;21.80;69.50
11387;DHT22;5748;53.102;8.456;2022-08-01T05:20:47;21.70;69.30
11387;DHT22;5748;53.102;8.456;2022-08-01T05:23:20;21.80;69.40
11387;DHT22;5748;53.102;8.456;2022-08-01T05:25:48;21.80;69.80
11387;DHT22;5748;53.102;8.456;2022-08-01T05:28:25;21.70;69.40
11387;DHT22;5748;53.102;8.456;2022-08-01T05:30:52;21.70;70.00
11387;DHT22;5748;53.102;8.456;2022-08-01T05:33:26;21.80;69.70
11387;DHT22;5748;53.102;8.456;2022-08-01T05:35:53;21.70;69.80
11387;DHT22;5748;53.102;8.456;2022-08-01T05:38:20;21.80;69.70
11387;DHT22;5748;53.102;8.456;2022-08-01T05:41:23;21.80;69.60
11387;DHT22;5748;53.102;8.456;2022-08-01T05:43:52;21.80;70.30
11387;DHT22;5748;53.102;8.456;2022-08-01T05:46:19;21.80;69.40
11387;DHT22;5748;53.102;8.456;2022-08-01T05:48:46;21.80;69.40
11387;DHT22;5748;53.102;8.456;2022-08-01T05:51:13;21.80;69.30
11387;DHT22;5748;53.102;8.456;2022-08-01T05:53:40;21.80;69.30
11387;DHT22;5748;53.102;8.456;2022-08-01T05:56:07;21.80;69.20
11387;DHT22;5748;53.102;8.456;2022-08-01T05:58:36;21.70;69.10
11387;DHT22;5748;53.102;8.456;2022-08-01T06:01:04;21.70;69.20
11387;DHT22;5748;53.102;8.456;2022-08-01T06:03:32;21.70;69.10
11387;DHT22;5748;53.102;8.456;2022-08-01T06:05:59;21.70;69.10
11387;DHT22;5748;53.102;8.456;2022-08-01T06:08:27;21.60;68.90
11387;DHT22;5748;53.102;8.456;2022-08-01T06:10:54;21.60;68.90
11387;DHT22;5748;53.102;8.456;2022-08-01T06:13:22;21.50;68.90
11387;DHT22;5748;53.102;8.456;2022-08-01T06:15:49;21.50;68.80
11387;DHT22;5748;53.102;8.456;2022-08-01T06:18:17;21.50;68.80
11387;DHT22;5748;53.102;8.456;2022-08-01T06:20:52;21.50;68.90
11387;DHT22;5748;53.102;8.456;2022-08-01T06:23:20;21.40;69.10
11387;DHT22;5748;53.102;8.456;2022-08-01T06:26:00;21.40;69.00
11387;DHT22;5748;53.102;8.456;2022-08-01T06:28:28;21.40;69.30
11387;DHT22;5748;53.102;8.456;2022-08-01T06:30:55;21.40;68.90
11387;DHT22;5748;53.102;8.456;2022-08-01T06:33:25;21.40;69.00
11387;DHT22;5748;53.102;8.456;2022-08-01T06:35:53;21.40;69.10
11387;DHT22;5748;53.102;8.456;2022-08-01T06:38:20;21.40;69.00
11387;DHT22;5748;53.102;8.456;2022-08-01T06:40:47;21.30;68.90
11387;DHT22;5748;53.102;8.456;2022-08-01T06:43:14;21.40;69.10
11387;DHT22;5748;53.102;8.456;2022-08-01T06:45:51;21.40;69.10
11387;DHT22;5748;53.102;8.456;2022-08-01T06:48:26;21.30;69.50
11387;DHT22;5748;53.102;8.456;2022-08-01T06:50:53;21.40;69.30
11387;DHT22;5748;53.102;8.456;2022-08-01T06:53:33;21.40;69.30
11387;DHT22;5748;53.102;8.456;2022-08-01T06:56:00;21.40;69.40
11387;DHT22;5748;53.102;8.456;2022-08-01T06:58:27;21.40;69.30
11387;DHT22;5748;53.102;8.456;2022-08-01T07:00:54;21.50;69.40
11387;DHT22;5748;53.102;8.456;2022-08-01T07:03:27;21.50;69.50
11387;DHT22;5748;53.102;8.456;2022-08-01T07:05:54;21.50;69.50
11387;DHT22;5748;53.102;8.456;2022-08-01T07:08:23;21.50;69.30
11387;DHT22;5748;53.102;8.456;2022-08-01T07:10:50;21.60;69.50
11387;DHT22;5748;53.102;8.456;2022-08-01T07:13:17;21.60;69.30
11387;DHT22;5748;53.102;8.456;2022-08-01T07:15:48;21.60;69.30
11387;DHT22;5748;53.102;8.456;2022-08-01T07:18:20;21.70;69.90
11387;DHT22;5748;53.102;8.456;2022-08-01T07:20:49;21.60;69.70
11387;DHT22;5748;53.102;8.456;2022-08-01T07:23:16;21.70;69.30
11387;DHT22;5748;53.102;8.456;2022-08-01T07:25:43;21.80;69.40
11387;DHT22;5748;53.102;8.456;2022-08-01T07:28:21;21.80;69.50
11387;DHT22;5748;53.102;8.456;2022-08-01T07:30:49;21.80;69.50
11387;DHT22;5748;53.102;8.456;2022-08-01T07:33:17;21.80;69.40
11387;DHT22;5748;53.102;8.456;2022-08-01T07:35:44;21.90;69.40
11387;DHT22;5748;53.102;8.456;2022-08-01T07:38:23;21.90;69.60
11387;DHT22;5748;53.102;8.456;2022-08-01T07:40:50;22.00;70.00
11387;DHT22;5748;53.102;8.456;2022-08-01T07:43:17;22.10;70.10
11387;DHT22;5748;53.102;8.456;2022-08-01T07:45:44;22.10;70.10
11387;DHT22;5748;53.102;8.456;2022-08-01T07:48:26;22.20;70.10
11387;DHT22;5748;53.102;8.456;2022-08-01T07:51:05;22.30;70.20
11387;DHT22;5748;53.102;8.456;2022-08-01T07:53:35;22.40;69.70
11387;DHT22;5748;53.102;8.456;2022-08-01T07:56:08;22.50;70.00
11387;DHT22;5748;53.102;8.456;2022-08-01T07:58:35;22.60;70.00
11387;DHT22;5748;53.102;8.456;2022-08-01T08:01:03;22.70;69.80
11387;DHT22;5748;53.102;8.456;2022-08-01T08:03:40;22.70;70.00
11387;DHT22;5748;53.102;8.456;2022-08-01T08:06:07;22.80;69.80
11387;DHT22;5748;53.102;8.456;2022-08-01T08:08:45;23.00;69.80
11387;DHT22;5748;53.102;8.456;2022-08-01T08:11:12;23.10;68.70
11387;DHT22;5748;53.102;8.456;2022-08-01T08:13:42;23.10;69.00
11387;DHT22;5748;53.102;8.456;2022-08-01T08:16:09;23.20;68.80
11387;DHT22;5748;53.102;8.456;2022-08-01T08:18:36;23.30;69.10
11387;DHT22;5748;53.102;8.456;2022-08-01T08:21:03;23.40;69.40
11387;DHT22;5748;53.102;8.456;2022-08-01T08:23:30;23.50;68.80
11387;DHT22;5748;53.102;8.456;2022-08-01T08:26:16;23.50;68.60
11387;DHT22;5748;53.102;8.456;2022-08-01T08:28:49;23.60;68.40
11387;DHT22;5748;53.102;8.456;2022-08-01T08:31:16;23.70;68.00
11387;DHT22;5748;53.102;8.456;2022-08-01T08:33:43;23.80;68.30
11387;DHT22;5748;53.102;8.456;2022-08-01T08:36:10;23.90;68.20
11387;DHT22;5748;53.102;8.456;2022-08-01T08:38:37;23.90;68.90
11387;DHT22;5748;53.102;8.456;2022-08-01T08:41:05;24.00;68.20
11387;DHT22;5748;53.102;8.456;2022-08-01T08:43:35;24.10;68.20
11387;DHT22;5748;53.102;8.456;2022-08-01T08:46:02;24.20;67.80
11387;DHT22;5748;53.102;8.456;2022-08-01T08:48:30;24.30;68.10
11387;DHT22;5748;53.102;8.456;2022-08-01T08:50:58;24.40;68.20
11387;DHT22;5748;53.102;8.456;2022-08-01T08:53:27;24.40;67.60
11387;DHT22;5748;53.102;8.456;2022-08-01T08:55:55;24.60;67.70
11387;DHT22;5748;53.102;8.456;2022-08-01T08:58:25;24.70;68.00
11387;DHT22;5748;53.102;8.456;2022-08-01T09:00:54;24.80;68.20
11387;DHT22;5748;53.102;8.456;2022-08-01T09:03:23;24.90;68.10
11387;DHT22;5748;53.102;8.456;2022-08-01T09:05:50;25.00;67.40
11387;DHT22;5748;53.102;8.456;2022-08-01T09:08:18;25.00;67.20
11387;DHT22;5748;53.102;8.456;2022-08-01T09:11:04;25.10;67.10
11387;DHT22;5748;53.102;8.456;2022-08-01T09:13:32;25.20;64.80
11387;DHT22;5748;53.102;8.456;2022-08-01T09:16:00;25.30;66.60
11387;DHT22;5748;53.102;8.456;2022-08-01T09:18:30;25.40;66.30
11387;DHT22;5748;53.102;8.456;2022-08-01T09:21:10;25.50;66.30
11387;DHT22;5748;53.102;8.456;2022-08-01T09:23:45;25.60;65.50
11387;DHT22;5748;53.102;8.456;2022-08-01T09:26:28;25.70;66.20
11387;DHT22;5748;53.102;8.456;2022-08-01T09:28:56;25.80;65.40
11387;DHT22;5748;53.102;8.456;2022-08-01T09:31:26;25.90;66.50
11387;DHT22;5748;53.102;8.456;2022-08-01T09:33:55;26.00;65.50
11387;DHT22;5748;53.102;8.456;2022-08-01T09:36:25;26.10;65.70
11387;DHT22;5748;53.102;8.456;2022-08-01T09:38:54;26.20;65.40
11387;DHT22;5748;53.102;8.456;2022-08-01T09:41:31;26.30;65.00
11387;DHT22;5748;53.102;8.456;2022-08-01T09:43:58;26.30;63.60
11387;DHT22;5748;53.102;8.456;2022-08-01T09:46:26;26.40;64.50
11387;DHT22;5748;53.102;8.456;2022-08-01T09:48:59;26.40;64.00
11387;DHT22;5748;53.102;8.456;2022-08-01T09:51:31;26.40;63.30
11387;DHT22;5748;53.102;8.456;2022-08-01T09:54:00;26.50;63.60
11387;DHT22;5748;53.102;8.456;2022-08-01T09:56:36;26.50;63.50
11387;DHT22;5748;53.102;8.456;2022-08-01T09:59:04;26.60;62.20
11387;DHT22;5748;53.102;8.456;2022-08-01T10:01:44;26.60;63.30
11387;DHT22;5748;53.102;8.456;2022-08-01T10:04:13;26.70;62.40
11387;DHT22;5748;53.102;8.456;2022-08-01T10:06:44;26.80;63.10
11387;DHT22;5748;53.102;8.456;2022-08-01T10:09:27;26.80;62.70
11387;DHT22;5748;53.102;8.456;2022-08-01T10:11:55;26.90;60.90
11387;DHT22;5748;53.102;8.456;2022-08-01T10:14:25;27.00;62.80
11387;DHT22;5748;53.102;8.456;2022-08-01T10:16:57;27.00;62.40
11387;DHT22;5748;53.102;8.456;2022-08-01T10:19:27;27.10;61.80
11387;DHT22;5748;53.102;8.456;2022-08-01T10:21:56;27.10;62.30
11387;DHT22;5748;53.102;8.456;2022-08-01T10:24:26;27.20;62.70
11387;DHT22;5748;53.102;8.456;2022-08-01T10:27:03;27.30;62.20
11387;DHT22;5748;53.102;8.456;2022-08-01T10:29:43;27.40;61.20
11387;DHT22;5748;53.102;8.456;2022-08-01T10:32:16;27.50;59.40
11387;DHT22;5748;53.102;8.456;2022-08-01T10:34:57;27.60;61.40
11387;DHT22;5748;53.102;8.456;2022-08-01T10:37:25;27.70;59.80
11387;DHT22;5748;53.102;8.456;2022-08-01T10:40:12;27.70;60.70
11387;DHT22;5748;53.102;8.456;2022-08-01T10:42:42;27.70;58.10
11387;DHT22;5748;53.102;8.456;2022-08-01T10:45:12;27.80;60.80
11387;DHT22;5748;53.102;8.456;2022-08-01T10:47:48;27.80;60.00
11387;DHT22;5748;53.102;8.456;2022-08-01T10:50:25;27.80;58.60
11387;DHT22;5748;53.102;8.456;2022-08-01T10:53:11;27.80;59.30
11387;DHT22;5748;53.102;8.456;2022-08-01T10:55:47;27.80;57.40
11387;DHT22;5748;53.102;8.456;2022-08-01T10:58:23;27.80;58.40
11387;DHT22;5748;53.102;8.456;2022-08-01T11:01:15;27.30;58.30
11387;DHT22;5748;53.102;8.456;2022-08-01T11:03:58;27.70;57.50
11387;DHT22;5748;53.102;8.456;2022-08-01T11:06:40;27.70;57.90
11387;DHT22;5748;53.102;8.456;2022-08-01T11:09:38;27.80;59.10
11387;DHT22;5748;53.102;8.456;2022-08-01T11:12:09;27.90;59.50
11387;DHT22;5748;53.102;8.456;2022-08-01T11:17:55;28.30;59.20
11387;DHT22;5748;53.102;8.456;2022-08-01T11:20:24;28.60;61.40
11387;DHT22;5748;53.102;8.456;2022-08-01T11:23:26;28.80;60.60
11387;DHT22;5748;53.102;8.456;2022-08-01T11:26:12;29.10;59.90
11387;DHT22;5748;53.102;8.456;2022-08-01T11:29:10;29.50;60.30
11387;DHT22;5748;53.102;8.456;2022-08-01T11:31:40;30.10;56.40
11387;DHT22;5748;53.102;8.456;2022-08-01T11:34:07;30.50;61.60
11387;DHT22;5748;53.102;8.456;2022-08-01T11:36:37;30.80;60.00
11387;DHT22;5748;53.102;8.456;2022-08-01T11:39:13;31.00;58.10
11387;DHT22;5748;53.102;8.456;2022-08-01T11:44:48;31.10;54.30
11387;DHT22;5748;53.102;8.456;2022-08-01T11:47:17;31.20;57.00
11387;DHT22;5748;53.102;8.456;2022-08-01T11:49:46;31.20;58.00
11387;DHT22;5748;53.102;8.456;2022-08-01T11:52:30;31.40;56.70
11387;DHT22;5748;53.102;8.456;2022-08-01T11:55:08;31.50;54.50
11387;DHT22;5748;53.102;8.456;2022-08-01T11:57:36;31.50;54.20
11387;DHT22;5748;53.102;8.456;2022-08-01T12:00:10;31.50;54.40
11387;DHT22;5748;53.102;8.456;2022-08-01T12:02:37;31.30;54.30
11387;DHT22;5748;53.102;8.456;2022-08-01T12:05:06;31.30;54.90
11387;DHT22;5748;53.102;8.456;2022-08-01T12:07:37;31.30;55.50
11387;DHT22;5748;53.102;8.456;2022-08-01T12:10:07;31.50;56.30
11387;DHT22;5748;53.102;8.456;2022-08-01T12:12:37;31.70;57.10
11387;DHT22;5748;53.102;8.456;2022-08-01T12:15:11;32.10;57.90
11387;DHT22;5748;53.102;8.456;2022-08-01T12:17:40;32.60;57.20
11387;DHT22;5748;53.102;8.456;2022-08-01T12:20:10;33.10;56.70
11387;DHT22;5748;53.102;8.456;2022-08-01T12:22:39;33.50;55.30
11387;DHT22;5748;53.102;8.456;2022-08-01T12:25:08;33.80;54.40
11387;DHT22;5748;53.102;8.456;2022-08-01T12:27:38;34.00;54.10
11387;DHT22;5748;53.102;8.456;2022-08-01T12:30:09;34.20;54.00
11387;DHT22;5748;53.102;8.456;2022-08-01T12:32:43;34.30;51.40
11387;DHT22;5748;53.102;8.456;2022-08-01T12:35:12;34.40;50.50
11387;DHT22;5748;53.102;8.456;2022-08-01T12:37:43;34.30;50.50
11387;DHT22;5748;53.102;8.456;2022-08-01T12:40:15;34.20;50.10
11387;DHT22;5748;53.102;8.456;2022-08-01T12:42:45;34.10;50.10
11387;DHT22;5748;53.102;8.456;2022-08-01T12:45:15;34.00;50.30
11387;DHT22;5748;53.102;8.456;2022-08-01T12:47:44;33.80;49.60
11387;DHT22;5748;53.102;8.456;2022-08-01T12:50:13;33.60;50.30
11387;DHT22;5748;53.102;8.456;2022-08-01T12:52:43;33.50;51.00
11387;DHT22;5748;53.102;8.456;2022-08-01T12:55:13;33.40;50.20
11387;DHT22;5748;53.102;8.456;2022-08-01T12:58:04;33.30;49.10
11387;DHT22;5748;53.102;8.456;2022-08-01T13:00:32;33.00;47.10
11387;DHT22;5748;53.102;8.456;2022-08-01T13:03:04;32.80;48.90
11387;DHT22;5748;53.102;8.456;2022-08-01T13:05:45;32.40;47.60
11387;DHT22;5748;53.102;8.456;2022-08-01T13:08:16;32.10;45.20
11387;DHT22;5748;53.102;8.456;2022-08-01T13:11:00;31.80;48.00
11387;DHT22;5748;53.102;8.456;2022-08-01T13:13:38;31.40;47.50
11387;DHT22;5748;53.102;8.456;2022-08-01T13:16:07;31.00;47.40
11387;DHT22;5748;53.102;8.456;2022-08-01T13:18:48;30.70;48.60
11387;DHT22;5748;53.102;8.456;2022-08-01T13:21:21;30.40;47.40
11387;DHT22;5748;53.102;8.456;2022-08-01T13:24:07;30.10;48.10
11387;DHT22;5748;53.102;8.456;2022-08-01T13:26:40;29.80;48.10
11387;DHT22;5748;53.102;8.456;2022-08-01T13:29:09;29.60;49.30
11387;DHT22;5748;53.102;8.456;2022-08-01T13:31:49;29.40;49.50
11387;DHT22;5748;53.102;8.456;2022-08-01T13:34:16;29.20;47.90
11387;DHT22;5748;53.102;8.456;2022-08-01T13:36:43;29.00;49.40
11387;DHT22;5748;53.102;8.456;2022-08-01T13:39:27;28.90;49.60
11387;DHT22;5748;53.102;8.456;2022-08-01T13:42:06;28.70;49.30
11387;DHT22;5748;53.102;8.456;2022-08-01T13:44:40;28.60;50.10
11387;DHT22;5748;53.102;8.456;2022-08-01T13:47:08;28.40;50.00
11387;DHT22;5748;53.102;8.456;2022-08-01T13:52:57;28.30;50.40
11387;DHT22;5748;53.102;8.456;2022-08-01T13:55:41;28.30;50.20
11387;DHT22;5748;53.102;8.456;2022-08-01T13:58:20;28.30;50.00
11387;DHT22;5748;53.102;8.456;2022-08-01T14:00:54;28.30;49.70
11387;DHT22;5748;53.102;8.456;2022-08-01T14:03:41;28.20;49.10
11387;DHT22;5748;53.102;8.456;2022-08-01T14:06:08;28.20;49.20
11387;DHT22;5748;53.102;8.456;2022-08-01T14:08:36;28.20;50.00
11387;DHT22;5748;53.102;8.456;2022-08-01T14:11:04;28.10;50.00
11387;DHT22;5748;53.102;8.456;2022-08-01T14:13:31;28.00;50.20
11387;DHT22;5748;53.102;8.456;2022-08-01T14:15:59;28.00;50.10
11387;DHT22;5748;53.102;8.456;2022-08-01T14:18:26;27.90;50.40
11387;DHT22;5748;53.102;8.456;2022-08-01T14:20:53;27.90;50.40
11387;DHT22;5748;53.102;8.456;2022-08-01T14:23:20;27.80;50.60
11387;DHT22;5748;53.102;8.456;2022-08-01T14:25:47;27.80;50.20
11387;DHT22;5748;53.102;8.456;2022-08-01T14:28:16;27.80;50.40
11387;DHT22;5748;53.102;8.456;2022-08-01T14:30:43;27.80;50.10
11387;DHT22;5748;53.102;8.456;2022-08-01T14:33:11;27.80;50.40
11387;DHT22;5748;53.102;8.456;2022-08-01T14:35:39;27.80;50.10
11387;DHT22;5748;53.102;8.456;2022-08-01T14:38:06;27.70;50.00
11387;DHT22;5748;53.102;8.456;2022-08-01T14:40:33;27.70;50.20
11387;DHT22;5748;53.102;8.456;2022-08-01T14:43:01;27.70;50.20
11387;DHT22;5748;53.102;8.456;2022-08-01T14:45:29;27.70;50.90
11387;DHT22;5748;53.102;8.456;2022-08-01T14:48:00;27.70;50.00
11387;DHT22;5748;53.102;8.456;2022-08-01T14:50:28;27.70;50.00
11387;DHT22;5748;53.102;8.456;2022-08-01T14:52:56;27.70;49.90
11387;DHT22;5748;53.102;8.456;2022-08-01T14:55:24;27.60;49.80
11387;DHT22;5748;53.102;8.456;2022-08-01T14:57:52;27.60;49.70
11387;DHT22;5748;53.102;8.456;2022-08-01T15:00:20;27.50;49.80
11387;DHT22;5748;53.102;8.456;2022-08-01T15:02:50;27.50;49.80
11387;DHT22;5748;53.102;8.456;2022-08-01T15:05:18;27.50;49.90
11387;DHT22;5748;53.102;8.456;2022-08-01T15:07:46;27.40;49.70
11387;DHT22;5748;53.102;8.456;2022-08-01T15:10:13;27.40;49.50
11387;DHT22;5748;53.102;8.456;2022-08-01T15:12:41;27.40;49.60
11387;DHT22;5748;53.102;8.456;2022-08-01T15:15:15;27.40;49.70
11387;DHT22;5748;53.102;8.456;2022-08-01T15:17:41;27.40;49.20
11387;DHT22;5748;53.102;8.456;2022-08-01T15:20:10;27.40;49.80
11387;DHT22;5748;53.102;8.456;2022-08-01T15:22:55;27.40;49.40
11387;DHT22;5748;53.102;8.456;2022-08-01T15:25:22;27.40;48.90
11387;DHT22;5748;53.102;8.456;2022-08-01T15:27:57;27.40;49.50
11387;DHT22;5748;53.102;8.456;2022-08-01T15:30:26;27.30;48.90
11387;DHT22;5748;53.102;8.456;2022-08-01T15:32:53;27.30;49.00
11387;DHT22;5748;53.102;8.456;2022-08-01T15:35:22;27.20;49.10
11387;DHT22;5748;53.102;8.456;2022-08-01T15:37:49;27.10;48.80
11387;DHT22;5748;53.102;8.456;2022-08-01T15:40:16;27.10;48.90
11387;DHT22;5748;53.102;8.456;2022-08-01T15:42:44;27.10;49.20
11387;DHT22;5748;53.102;8.456;2022-08-01T15:45:11;27.00;49.20
11387;DHT22;5748;53.102;8.456;2022-08-01T15:47:43;27.00;49.20
11387;DHT22;5748;53.102;8.456;2022-08-01T15:50:24;26.90;49.20
11387;DHT22;5748;53.102;8.456;2022-08-01T15:52:56;26.90;48.70
11387;DHT22;5748;53.102;8.456;2022-08-01T15:55:23;26.90;49.00
11387;DHT22;5748;53.102;8.456;2022-08-01T15:57:50;26.80;49.30
11387;DHT22;5748;53.102;8.456;2022-08-01T16:00:20;26.80;49.10
11387;DHT22;5748;53.102;8.456;2022-08-01T16:03:18;26.80;48.70
11387;DHT22;5748;53.102;8.456;2022-08-01T16:06:11;26.80;48.70
11387;DHT22;5748;53.102;8.456;2022-08-01T16:08:46;26.70;48.30
11387;DHT22;5748;53.102;8.456;2022-08-01T16:11:15;26.60;48.00
11387;DHT22;5748;53.102;8.456;2022-08-01T16:13:44;26.60;48.50
11387;DHT22;5748;53.102;8.456;2022-08-01T16:16:17;26.50;48.60
11387;DHT22;5748;53.102;8.456;2022-08-01T16:18:57;26.40;48.60
11387;DHT22;5748;53.102;8.456;2022-08-01T16:21:48;26.30;48.50
11387;DHT22;5748;53.102;8.456;2022-08-01T16:24:22;26.20;47.70